sensor_id;sensor_type;location;lat;lon;timestamp;pressure;altitude;pressure_sealevel;temperature;humidity
41684;BME280;27369;52.030;4.586;2023-04-08T00:01:22;-20807.34;;;-144.41;100.00
41684;BME280;27369;52.030;4.586;2023-04-08T00:03:48;-20807.34;;;-144.41;100.00
41684;BME280;27369;52.030;4.586;2023-04-08T00:06:13;-20807.34;;;-144.41;100.00
41684;BME280;27369;52.030;4.586;2023-04-08T00:08:39;-20807.34;;;-144.41;100.00
41684;BME280;27369;52.030;4.586;2023-04-08T00:11:04;-20807.34;;;-144.41;100.00
41684;BME280;27369;52.030;4.586;2023-04-08T00:13:30;-20807.34;;;-144.41;100.00
41684;BME280;27369;52.030;4.586;2023-04-08T00:15:56;-20807.34;;;-144.41;100.00
41684;BME280;27369;52.030;4.586;2023-04-08T00:18:21;-20807.34;;;-144.41;100.00
41684;BME280;27369;52.030;4.586;2023-04-08T00:20:47;-20807.34;;;-144.41;100.00
41684;BME280;27369;52.030;4.586;2023-04-08T00:23:12;-20807.34;;;-144.41;100.00
41684;BME280;27369;52.030;4.586;2023-04-08T00:25:37;-20807.34;;;-144.41;100.00
41684;BME280;27369;52.030;4.586;2023-04-08T00:28:03;-20807.34;;;-144.41;100.00
41684;BME280;27369;52.030;4.586;2023-04-08T00:30:28;-20807.34;;;-144.41;100.00
41684;BME280;27369;52.030;4.586;2023-04-08T00:32:54;-20807.34;;;-144.41;100.00
41684;BME280;27369;52.030;4.586;2023-04-08T00:35:19;-20807.34;;;-144.41;100.00
41684;BME280;27369;52.030;4.586;2023-04-08T00:37:45;-20807.34;;;-144.41;100.00
41684;BME280;27369;52.030;4.586;2023-04-08T00:40:10;-20807.34;;;-144.41;100.00
41684;BME280;27369;52.030;4.586;2023-04-08T00:42:36;-20807.34;;;-144.41;100.00
41684;BME280;27369;52.030;4.586;2023-04-08T00:45:02;-20807.34;;;-144.41;100.00
41684;BME280;27369;52.030;4.586;2023-04-08T00:47:27;-20807.34;;;-144.41;100.00
41684;BME280;27369;52.030;4.586;2023-04-08T00:49:53;-20807.34;;;-144.41;100.00
41684;BME280;27369;52.030;4.586;2023-04-08T00:52:18;-20807.34;;;-144.41;100.00
41684;BME280;27369;52.030;4.586;2023-04-08T00:54:44;-20807.34;;;-144.41;100.00
41684;BME280;27369;52.030;4.586;2023-04-08T00:57:09;-20807.34;;;-144.41;100.00
41684;BME280;27369;52.030;4.586;2023-04-08T00:59:35;-20807.34;;;-144.41;100.00
41684;BME280;27369;52.030;4.586;2023-04-08T01:07:24;-20807.34;;;-144.41;100.00
41684;BME280;27369;52.030;4.586;2023-04-08T01:09:55;-20807.34;;;-144.41;100.00
41684;BME280;27369;52.030;4.586;2023-04-08T01:12:28;-20807.34;;;-144.41;100.00
41684;BME280;27369;52.030;4.586;2023-04-08T01:15:03;-20807.34;;;-144.41;100.00
41684;BME280;27369;52.030;4.586;2023-04-08T01:17:30;-20807.34;;;-144.41;100.00
41684;BME280;27369;52.030;4.586;2023-04-08T01:19:58;-20807.34;;;-144.41;100.00
41684;BME280;27369;52.030;4.586;2023-04-08T01:25:11;-20807.34;;;-144.41;100.00
41684;BME280;27369;52.030;4.586;2023-04-08T01:27:39;-20807.34;;;-144.41;100.00
41684;BME280;27369;52.030;4.586;2023-04-08T01:30:07;-20807.34;;;-144.41;100.00
41684;BME280;27369;52.030;4.586;2023-04-08T01:32:34;-20807.34;;;-144.41;100.00
41684;BME280;27369;52.030;4.586;2023-04-08T01:35:01;-20807.34;;;-144.41;100.00
41684;BME280;27369;52.030;4.586;2023-04-08T01:37:28;-20807.34;;;-144.41;100.00
41684;BME280;27369;52.030;4.586;2023-04-08T01:39:54;-20807.34;;;-144.41;100.00
41684;BME280;27369;52.030;4.586;2023-04-08T01:42:25;-20807.34;;;-144.41;100.00
41684;BME280;27369;52.030;4.586;2023-04-08T01:44:55;-20807.34;;;-144.41;100.00
41684;BME280;27369;52.030;4.586;2023-04-08T01:47:21;-20807.34;;;-144.41;100.00
41684;BME280;27369;52.030;4.586;2023-04-08T01:49:48;-20807.34;;;-144.41;100.00
41684;BME280;27369;52.030;4.586;2023-04-08T01:52:15;-20807.34;;;-144.41;100.00
41684;BME280;27369;52.030;4.586;2023-04-08T01:54:42;-20807.34;;;-144.41;100.00
41684;BME280;27369;52.030;4.586;2023-04-08T01:57:11;-20807.34;;;-144.41;100.00
41684;BME280;27369;52.030;4.586;2023-04-08T01:59:39;-20807.34;;;-144.41;100.00
41684;BME280;27369;52.030;4.586;2023-04-08T02:02:07;-20807.34;;;-144.41;100.00
41684;BME280;27369;52.030;4.586;2023-04-08T02:04:34;-20807.34;;;-144.41;100.00
41684;BME280;27369;52.030;4.586;2023-04-08T02:07:00;-20807.34;;;-144.41;100.00
41684;BME280;27369;52.030;4.586;2023-04-08T02:09:26;-20807.34;;;-144.41;100.00
41684;BME280;27369;52.030;4.586;2023-04-08T02:11:52;-20807.34;;;-144.41;100.00
41684;BME280;27369;52.030;4.586;2023-04-08T02:14:17;-20807.34;;;-144.41;100.00
41684;BME280;27369;52.030;4.586;2023-04-08T02:16:53;-20807.34;;;-144.41;100.00
41684;BME280;27369;52.030;4.586;2023-04-08T02:19:29;-20807.34;;;-144.41;100.00
41684;BME280;27369;52.030;4.586;2023-04-08T02:22:01;-20807.34;;;-144.41;100.00
41684;BME280;27369;52.030;4.586;2023-04-08T02:24:29;-20807.34;;;-144.41;100.00
41684;BME280;27369;52.030;4.586;2023-04-08T02:26:55;-20807.34;;;-144.41;100.00
41684;BME280;27369;52.030;4.586;2023-04-08T02:29:22;-20807.34;;;-144.41;100.00
41684;BME280;27369;52.030;4.586;2023-04-08T02:31:48;-20807.34;;;-144.41;100.00
41684;BME280;27369;52.030;4.586;2023-04-08T02:34:16;-20807.34;;;-144.41;100.00
41684;BME280;27369;52.030;4.586;2023-04-08T02:36:42;-20807.34;;;-144.41;100.00
41684;BME280;27369;52.030;4.586;2023-04-08T02:39:10;-20807.34;;;-144.41;100.00
41684;BME280;27369;52.030;4.586;2023-04-08T02:41:35;-20807.34;;;-144.41;100.00
41684;BME280;27369;52.030;4.586;2023-04-08T02:44:01;-20807.34;;;-144.41;100.00
41684;BME280;27369;52.030;4.586;2023-04-08T02:46:26;-20807.34;;;-144.41;100.00
41684;BME280;27369;52.030;4.586;2023-04-08T02:48:52;-20807.34;;;-144.41;100.00
41684;BME280;27369;52.030;4.586;2023-04-08T02:51:17;-20807.34;;;-144.41;100.00
41684;BME280;27369;52.030;4.586;2023-04-08T02:53:43;-20807.34;;;-144.41;100.00
41684;BME280;27369;52.030;4.586;2023-04-08T02:56:11;-20807.34;;;-144.41;100.00
41684;BME280;27369;52.030;4.586;2023-04-08T02:58:37;-20807.34;;;-144.41;100.00
41684;BME280;27369;52.030;4.586;2023-04-08T03:01:03;-20807.34;;;-144.41;100.00
41684;BME280;27369;52.030;4.586;2023-04-08T03:03:29;-20807.34;;;-144.41;100.00
41684;BME280;27369;52.030;4.586;2023-04-08T03:05:56;-20807.34;;;-144.41;100.00
41684;BME280;27369;52.030;4.586;2023-04-08T03:08:21;-20807.34;;;-144.41;100.00
41684;BME280;27369;52.030;4.586;2023-04-08T03:10:47;-20807.34;;;-144.41;100.00
41684;BME280;27369;52.030;4.586;2023-04-08T03:13:13;-20807.34;;;-144.41;100.00
41684;BME280;27369;52.030;4.586;2023-04-08T03:15:38;-20807.34;;;-144.41;100.00
41684;BME280;27369;52.030;4.586;2023-04-08T03:18:04;-20807.34;;;-144.41;100.00
41684;BME280;27369;52.030;4.586;2023-04-08T03:20:29;-20807.34;;;-144.41;100.00
41684;BME280;27369;52.030;4.586;2023-04-08T03:22:55;-20807.34;;;-144.41;100.00
41684;BME280;27369;52.030;4.586;2023-04-08T03:25:20;-20807.34;;;-144.41;100.00
41684;BME280;27369;52.030;4.586;2023-04-08T03:27:46;-20807.34;;;-144.41;100.00
41684;BME280;27369;52.030;4.586;2023-04-08T03:30:11;-20807.34;;;-144.41;100.00
41684;BME280;27369;52.030;4.586;2023-04-08T03:32:37;-20807.34;;;-144.41;100.00
41684;BME280;27369;52.030;4.586;2023-04-08T03:35:03;-20807.34;;;-144.41;100.00
41684;BME280;27369;52.030;4.586;2023-04-08T03:37:29;-20807.34;;;-144.41;100.00
41684;BME280;27369;52.030;4.586;2023-04-08T03:39:54;-20807.34;;;-144.41;100.00
41684;BME280;27369;52.030;4.586;2023-04-08T03:42:20;-20807.34;;;-144.41;100.00
41684;BME280;27369;52.030;4.586;2023-04-08T03:44:45;-20807.34;;;-144.41;100.00
41684;BME280;27369;52.030;4.586;2023-04-08T03:47:11;-20807.34;;;-144.41;100.00
41684;BME280;27369;52.030;4.586;2023-04-08T03:49:36;-20807.34;;;-144.41;100.00
41684;BME280;27369;52.030;4.586;2023-04-08T03:52:01;-20807.34;;;-144.41;100.00
41684;BME280;27369;52.030;4.586;2023-04-08T03:54:27;-20807.34;;;-144.41;100.00
41684;BME280;27369;52.030;4.586;2023-04-08T03:56:52;-20807.34;;;-144.41;100.00
41684;BME280;27369;52.030;4.586;2023-04-08T03:59:18;-20807.34;;;-144.41;100.00
41684;BME280;27369;52.030;4.586;2023-04-08T04:01:43;-20807.34;;;-144.41;100.00
41684;BME280;27369;52.030;4.586;2023-04-08T04:04:09;-20807.34;;;-144.41;100.00
41684;BME280;27369;52.030;4.586;2023-04-08T04:06:34;-20807.34;;;-144.41;100.00
41684;BME280;27369;52.030;4.586;2023-04-08T04:09:00;-20807.34;;;-144.41;100.00
41684;BME280;27369;52.030;4.586;2023-04-08T04:11:25;-20807.34;;;-144.41;100.00
41684;BME280;27369;52.030;4.586;2023-04-08T04:13:51;-20807.34;;;-144.41;100.00
41684;BME280;27369;52.030;4.586;2023-04-08T04:16:16;-20807.34;;;-144.41;100.00
41684;BME280;27369;52.030;4.586;2023-04-08T04:18:42;-20807.34;;;-144.41;100.00
41684;BME280;27369;52.030;4.586;2023-04-08T04:21:07;-20807.34;;;-144.41;100.00
41684;BME280;27369;52.030;4.586;2023-04-08T04:23:32;-20807.34;;;-144.41;100.00
41684;BME280;27369;52.030;4.586;2023-04-08T04:25:58;-20807.34;;;-144.41;100.00
41684;BME280;27369;52.030;4.586;2023-04-08T04:28:23;-20807.34;;;-144.41;100.00
41684;BME280;27369;52.030;4.586;2023-04-08T04:30:49;-20807.34;;;-144.41;100.00
41684;BME280;27369;52.030;4.586;2023-04-08T04:33:14;-20807.34;;;-144.41;100.00
41684;BME280;27369;52.030;4.586;2023-04-08T04:35:40;-20807.34;;;-144.41;100.00
41684;BME280;27369;52.030;4.586;2023-04-08T04:38:05;-20807.34;;;-144.41;100.00
41684;BME280;27369;52.030;4.586;2023-04-08T04:40:37;-20807.34;;;-144.41;100.00
41684;BME280;27369;52.030;4.586;2023-04-08T04:43:02;-20807.34;;;-144.41;100.00
41684;BME280;27369;52.030;4.586;2023-04-08T04:45:28;-20807.34;;;-144.41;100.00
41684;BME280;27369;52.030;4.586;2023-04-08T04:47:53;-20807.34;;;-144.41;100.00
41684;BME280;27369;52.030;4.586;2023-04-08T04:50:18;-20807.34;;;-144.41;100.00
41684;BME280;27369;52.030;4.586;2023-04-08T04:52:44;-20807.34;;;-144.41;100.00
41684;BME280;27369;52.030;4.586;2023-04-08T04:55:09;-20807.34;;;-144.41;100.00
41684;BME280;27369;52.030;4.586;2023-04-08T04:57:35;-20807.34;;;-144.41;100.00
41684;BME280;27369;52.030;4.586;2023-04-08T05:00:01;-20807.34;;;-144.41;100.00
41684;BME280;27369;52.030;4.586;2023-04-08T05:02:26;-20807.34;;;-144.41;100.00
41684;BME280;27369;52.030;4.586;2023-04-08T05:04:51;-20807.34;;;-144.41;100.00
41684;BME280;27369;52.030;4.586;2023-04-08T05:07:20;-20807.34;;;-144.41;100.00
41684;BME280;27369;52.030;4.586;2023-04-08T05:09:46;-20807.34;;;-144.41;100.00
41684;BME280;27369;52.030;4.586;2023-04-08T05:12:12;-20807.34;;;-144.41;100.00
41684;BME280;27369;52.030;4.586;2023-04-08T05:14:37;-20807.34;;;-144.41;100.00
41684;BME280;27369;52.030;4.586;2023-04-08T05:17:03;-20807.34;;;-144.41;100.00
41684;BME280;27369;52.030;4.586;2023-04-08T05:19:30;-20807.34;;;-144.41;100.00
41684;BME280;27369;52.030;4.586;2023-04-08T05:21:55;-20807.34;;;-144.41;100.00
41684;BME280;27369;52.030;4.586;2023-04-08T05:24:21;-20807.34;;;-144.41;100.00
41684;BME280;27369;52.030;4.586;2023-04-08T05:26:46;-20807.34;;;-144.41;100.00
41684;BME280;27369;52.030;4.586;2023-04-08T05:29:16;-20807.34;;;-144.41;100.00
41684;BME280;27369;52.030;4.586;2023-04-08T05:31:42;-20807.34;;;-144.41;100.00
41684;BME280;27369;52.030;4.586;2023-04-08T05:34:07;-20807.34;;;-144.41;100.00
41684;BME280;27369;52.030;4.586;2023-04-08T05:36:33;-20807.34;;;-144.41;100.00
41684;BME280;27369;52.030;4.586;2023-04-08T05:38:58;-20807.34;;;-144.41;100.00
41684;BME280;27369;52.030;4.586;2023-04-08T05:41:24;-20807.34;;;-144.41;100.00
41684;BME280;27369;52.030;4.586;2023-04-08T05:43:49;-20807.34;;;-144.41;100.00
41684;BME280;27369;52.030;4.586;2023-04-08T05:46:15;-20807.34;;;-144.41;100.00
41684;BME280;27369;52.030;4.586;2023-04-08T05:48:40;-20807.34;;;-144.41;100.00
41684;BME280;27369;52.030;4.586;2023-04-08T05:51:05;-20807.34;;;-144.41;100.00
41684;BME280;27369;52.030;4.586;2023-04-08T05:53:31;-20807.34;;;-144.41;100.00
41684;BME280;27369;52.030;4.586;2023-04-08T05:55:56;-20807.34;;;-144.41;100.00
41684;BME280;27369;52.030;4.586;2023-04-08T05:58:21;-20807.34;;;-144.41;100.00
41684;BME280;27369;52.030;4.586;2023-04-08T06:00:47;-20807.34;;;-144.41;100.00
41684;BME280;27369;52.030;4.586;2023-04-08T06:03:12;-20807.34;;;-144.41;100.00
41684;BME280;27369;52.030;4.586;2023-04-08T06:05:37;-20807.34;;;-144.41;100.00
41684;BME280;27369;52.030;4.586;2023-04-08T06:08:03;-20807.34;;;-144.41;100.00
41684;BME280;27369;52.030;4.586;2023-04-08T06:10:29;-20807.34;;;-144.41;100.00
41684;BME280;27369;52.030;4.586;2023-04-08T06:12:54;-20807.34;;;-144.41;100.00
41684;BME280;27369;52.030;4.586;2023-04-08T06:15:20;-20807.34;;;-144.41;100.00
41684;BME280;27369;52.030;4.586;2023-04-08T06:17:45;-20807.34;;;-144.41;100.00
41684;BME280;27369;52.030;4.586;2023-04-08T06:20:10;-20807.34;;;-144.41;100.00
41684;BME280;27369;52.030;4.586;2023-04-08T06:22:36;-20807.34;;;-144.41;100.00
41684;BME280;27369;52.030;4.586;2023-04-08T06:25:02;-20807.34;;;-144.41;100.00
41684;BME280;27369;52.030;4.586;2023-04-08T06:27:27;-20807.34;;;-144.41;100.00
41684;BME280;27369;52.030;4.586;2023-04-08T06:29:53;-20807.34;;;-144.41;100.00
41684;BME280;27369;52.030;4.586;2023-04-08T06:32:20;-20807.34;;;-144.41;100.00
41684;BME280;27369;52.030;4.586;2023-04-08T06:34:46;-20807.34;;;-144.41;100.00
41684;BME280;27369;52.030;4.586;2023-04-08T06:37:12;-20807.34;;;-144.41;100.00
41684;BME280;27369;52.030;4.586;2023-04-08T06:39:37;-20807.34;;;-144.41;100.00
41684;BME280;27369;52.030;4.586;2023-04-08T06:42:03;-20807.34;;;-144.41;100.00
41684;BME280;27369;52.030;4.586;2023-04-08T06:44:28;-20807.34;;;-144.41;100.00
41684;BME280;27369;52.030;4.586;2023-04-08T06:46:53;-20807.34;;;-144.41;100.00
41684;BME280;27369;52.030;4.586;2023-04-08T06:49:20;-20807.34;;;-144.41;100.00
41684;BME280;27369;52.030;4.586;2023-04-08T06:51:45;-20807.34;;;-144.41;100.00
41684;BME280;27369;52.030;4.586;2023-04-08T06:54:10;-20807.34;;;-144.41;100.00
41684;BME280;27369;52.030;4.586;2023-04-08T06:56:36;-20807.34;;;-144.41;100.00
41684;BME280;27369;52.030;4.586;2023-04-08T06:59:02;-20807.34;;;-144.41;100.00
41684;BME280;27369;52.030;4.586;2023-04-08T07:01:28;-20807.34;;;-144.41;100.00
41684;BME280;27369;52.030;4.586;2023-04-08T07:03:54;-20807.34;;;-144.41;100.00
41684;BME280;27369;52.030;4.586;2023-04-08T07:06:19;-20807.34;;;-144.41;100.00
41684;BME280;27369;52.030;4.586;2023-04-08T07:08:45;-20807.34;;;-144.41;100.00
41684;BME280;27369;52.030;4.586;2023-04-08T07:11:10;-20807.34;;;-144.41;100.00
41684;BME280;27369;52.030;4.586;2023-04-08T07:13:36;-20807.34;;;-144.41;100.00
41684;BME280;27369;52.030;4.586;2023-04-08T07:16:02;-20807.34;;;-144.41;100.00
41684;BME280;27369;52.030;4.586;2023-04-08T07:18:27;-20807.34;;;-144.41;100.00
41684;BME280;27369;52.030;4.586;2023-04-08T07:20:52;-20807.34;;;-144.41;100.00
41684;BME280;27369;52.030;4.586;2023-04-08T07:23:19;-20807.34;;;-144.41;100.00
41684;BME280;27369;52.030;4.586;2023-04-08T07:25:45;-20807.34;;;-144.41;100.00
41684;BME280;27369;52.030;4.586;2023-04-08T07:28:11;-20807.34;;;-144.41;100.00
41684;BME280;27369;52.030;4.586;2023-04-08T07:30:36;-20807.34;;;-144.41;100.00
41684;BME280;27369;52.030;4.586;2023-04-08T07:33:02;-20807.34;;;-144.41;100.00
41684;BME280;27369;52.030;4.586;2023-04-08T07:35:27;-20807.34;;;-144.41;100.00
41684;BME280;27369;52.030;4.586;2023-04-08T07:37:53;-20807.34;;;-144.41;100.00
41684;BME280;27369;52.030;4.586;2023-04-08T07:40:19;-20807.34;;;-144.41;100.00
41684;BME280;27369;52.030;4.586;2023-04-08T07:42:45;-20807.34;;;-144.41;100.00
41684;BME280;27369;52.030;4.586;2023-04-08T07:45:11;-20807.34;;;-144.41;100.00
41684;BME280;27369;52.030;4.586;2023-04-08T07:47:36;-20807.34;;;-144.41;100.00
41684;BME280;27369;52.030;4.586;2023-04-08T07:50:02;-20807.34;;;-144.41;100.00
41684;BME280;27369;52.030;4.586;2023-04-08T07:52:31;-20807.34;;;-144.41;100.00
41684;BME280;27369;52.030;4.586;2023-04-08T07:54:56;-20807.34;;;-144.41;100.00
41684;BME280;27369;52.030;4.586;2023-04-08T07:57:21;-20807.34;;;-144.41;100.00
41684;BME280;27369;52.030;4.586;2023-04-08T07:59:47;-20807.34;;;-144.41;100.00
41684;BME280;27369;52.030;4.586;2023-04-08T08:02:12;-20807.34;;;-144.41;100.00
41684;BME280;27369;52.030;4.586;2023-04-08T08:04:38;-20807.34;;;-144.41;100.00
41684;BME280;27369;52.030;4.586;2023-04-08T08:07:03;-20807.34;;;-144.41;100.00
41684;BME280;27369;52.030;4.586;2023-04-08T08:09:29;-20807.34;;;-144.41;100.00
41684;BME280;27369;52.030;4.586;2023-04-08T08:11:54;-20807.34;;;-144.41;100.00
41684;BME280;27369;52.030;4.586;2023-04-08T08:14:19;-20807.34;;;-144.41;100.00
41684;BME280;27369;52.030;4.586;2023-04-08T08:16:46;-20807.34;;;-144.41;100.00
41684;BME280;27369;52.030;4.586;2023-04-08T08:19:12;-20807.34;;;-144.41;100.00
41684;BME280;27369;52.030;4.586;2023-04-08T08:21:38;-20807.34;;;-144.41;100.00
41684;BME280;27369;52.030;4.586;2023-04-08T08:24:04;-20807.34;;;-144.41;100.00
41684;BME280;27369;52.030;4.586;2023-04-08T08:26:30;-20807.34;;;-144.41;100.00
41684;BME280;27369;52.030;4.586;2023-04-08T08:28:56;-20807.34;;;-144.41;100.00
41684;BME280;27369;52.030;4.586;2023-04-08T08:31:21;-20807.34;;;-144.41;100.00
41684;BME280;27369;52.030;4.586;2023-04-08T08:33:46;-20807.34;;;-144.41;100.00
41684;BME280;27369;52.030;4.586;2023-04-08T08:36:12;-20807.34;;;-144.41;100.00
41684;BME280;27369;52.030;4.586;2023-04-08T08:38:37;-20807.34;;;-144.41;100.00
41684;BME280;27369;52.030;4.586;2023-04-08T08:41:03;-20807.34;;;-144.41;100.00
41684;BME280;27369;52.030;4.586;2023-04-08T08:43:29;-20807.34;;;-144.41;100.00
41684;BME280;27369;52.030;4.586;2023-04-08T08:45:58;-20807.34;;;-144.41;100.00
41684;BME280;27369;52.030;4.586;2023-04-08T08:48:23;-20807.34;;;-144.41;100.00
41684;BME280;27369;52.030;4.586;2023-04-08T08:50:49;-20807.34;;;-144.41;100.00
41684;BME280;27369;52.030;4.586;2023-04-08T08:53:15;-20807.34;;;-144.41;100.00
41684;BME280;27369;52.030;4.586;2023-04-08T08:55:40;-20807.34;;;-144.41;100.00
41684;BME280;27369;52.030;4.586;2023-04-08T08:58:06;-20807.34;;;-144.41;100.00
41684;BME280;27369;52.030;4.586;2023-04-08T09:00:36;-20807.34;;;-144.41;100.00
41684;BME280;27369;52.030;4.586;2023-04-08T09:03:17;-20807.34;;;-144.41;100.00
41684;BME280;27369;52.030;4.586;2023-04-08T09:05:51;-20807.34;;;-144.41;100.00
41684;BME280;27369;52.030;4.586;2023-04-08T09:10:49;-20807.34;;;-144.41;100.00
41684;BME280;27369;52.030;4.586;2023-04-08T09:13:15;-20807.34;;;-144.41;100.00
41684;BME280;27369;52.030;4.586;2023-04-08T09:18:25;-20807.34;;;-144.41;100.00
41684;BME280;27369;52.030;4.586;2023-04-08T09:20:52;-20807.34;;;-144.41;100.00
41684;BME280;27369;52.030;4.586;2023-04-08T09:23:17;-20807.34;;;-144.41;100.00
41684;BME280;27369;52.030;4.586;2023-04-08T09:25:43;-20807.34;;;-144.41;100.00
41684;BME280;27369;52.030;4.586;2023-04-08T09:28:18;-20807.34;;;-144.41;100.00
41684;BME280;27369;52.030;4.586;2023-04-08T09:30:44;-20807.34;;;-144.41;100.00
41684;BME280;27369;52.030;4.586;2023-04-08T09:33:11;-20807.34;;;-144.41;100.00
41684;BME280;27369;52.030;4.586;2023-04-08T09:35:36;-20807.34;;;-144.41;100.00
41684;BME280;27369;52.030;4.586;2023-04-08T09:38:01;-20807.34;;;-144.41;100.00
41684;BME280;27369;52.030;4.586;2023-04-08T09:40:27;-20807.34;;;-144.41;100.00
41684;BME280;27369;52.030;4.586;2023-04-08T09:42:57;-20807.34;;;-144.41;100.00
41684;BME280;27369;52.030;4.586;2023-04-08T09:45:28;-20807.34;;;-144.41;100.00
41684;BME280;27369;52.030;4.586;2023-04-08T09:48:16;-20807.34;;;-144.41;100.00
41684;BME280;27369;52.030;4.586;2023-04-08T09:50:42;-20807.34;;;-144.41;100.00
41684;BME280;27369;52.030;4.586;2023-04-08T09:53:42;-20807.34;;;-144.41;100.00
41684;BME280;27369;52.030;4.586;2023-04-08T09:56:11;-20807.34;;;-144.41;100.00
41684;BME280;27369;52.030;4.586;2023-04-08T09:58:53;-20807.34;;;-144.41;100.00
41684;BME280;27369;52.030;4.586;2023-04-08T10:01:31;-20807.34;;;-144.41;100.00
41684;BME280;27369;52.030;4.586;2023-04-08T10:04:04;-20807.34;;;-144.41;100.00
41684;BME280;27369;52.030;4.586;2023-04-08T10:06:30;-20807.34;;;-144.41;100.00
41684;BME280;27369;52.030;4.586;2023-04-08T10:08:56;-20807.34;;;-144.41;100.00
41684;BME280;27369;52.030;4.586;2023-04-08T10:11:22;-20807.34;;;-144.41;100.00
41684;BME280;27369;52.030;4.586;2023-04-08T10:13:49;-20807.34;;;-144.41;100.00
41684;BME280;27369;52.030;4.586;2023-04-08T10:18:41;-20807.34;;;-144.41;100.00
41684;BME280;27369;52.030;4.586;2023-04-08T10:21:39;-20807.34;;;-144.41;100.00
41684;BME280;27369;52.030;4.586;2023-04-08T10:24:12;-20807.34;;;-144.41;100.00
41684;BME280;27369;52.030;4.586;2023-04-08T10:26:44;-20807.34;;;-144.41;100.00
41684;BME280;27369;52.030;4.586;2023-04-08T10:31:47;-20807.34;;;-144.41;100.00
41684;BME280;27369;52.030;4.586;2023-04-08T10:34:20;-20807.34;;;-144.41;100.00
41684;BME280;27369;52.030;4.586;2023-04-08T10:36:47;-20807.34;;;-144.41;100.00
41684;BME280;27369;52.030;4.586;2023-04-08T10:39:16;-20807.34;;;-144.41;100.00
41684;BME280;27369;52.030;4.586;2023-04-08T10:41:49;-20807.34;;;-144.41;100.00
41684;BME280;27369;52.030;4.586;2023-04-08T10:44:19;-20807.34;;;-144.41;100.00
41684;BME280;27369;52.030;4.586;2023-04-08T10:46:45;-20807.34;;;-144.41;100.00
41684;BME280;27369;52.030;4.586;2023-04-08T10:49:11;-20807.34;;;-144.41;100.00
41684;BME280;27369;52.030;4.586;2023-04-08T10:51:37;-20807.34;;;-144.41;100.00
41684;BME280;27369;52.030;4.586;2023-04-08T10:54:11;-20807.34;;;-144.41;100.00
41684;BME280;27369;52.030;4.586;2023-04-08T10:56:51;-20807.34;;;-144.41;100.00
41684;BME280;27369;52.030;4.586;2023-04-08T10:59:27;-20807.34;;;-144.41;100.00
41684;BME280;27369;52.030;4.586;2023-04-08T11:01:52;-20807.34;;;-144.41;100.00
41684;BME280;27369;52.030;4.586;2023-04-08T11:04:19;-20807.34;;;-144.41;100.00
41684;BME280;27369;52.030;4.586;2023-04-08T11:06:48;-20807.34;;;-144.41;100.00
41684;BME280;27369;52.030;4.586;2023-04-08T11:09:13;-20807.34;;;-144.41;100.00
41684;BME280;27369;52.030;4.586;2023-04-08T11:11:41;-20807.34;;;-144.41;100.00
41684;BME280;27369;52.030;4.586;2023-04-08T11:14:08;-20807.34;;;-144.41;100.00
41684;BME280;27369;52.030;4.586;2023-04-08T11:16:36;-20807.34;;;-144.41;100.00
41684;BME280;27369;52.030;4.586;2023-04-08T11:19:03;-20807.34;;;-144.41;100.00
41684;BME280;27369;52.030;4.586;2023-04-08T11:21:34;-20807.34;;;-144.41;100.00
41684;BME280;27369;52.030;4.586;2023-04-08T11:24:00;-20807.34;;;-144.41;100.00
41684;BME280;27369;52.030;4.586;2023-04-08T11:26:30;-20807.34;;;-144.41;100.00
41684;BME280;27369;52.030;4.586;2023-04-08T11:28:56;-20807.34;;;-144.41;100.00
41684;BME280;27369;52.030;4.586;2023-04-08T11:31:22;-20807.34;;;-144.41;100.00
41684;BME280;27369;52.030;4.586;2023-04-08T11:33:51;-20807.34;;;-144.41;100.00
41684;BME280;27369;52.030;4.586;2023-04-08T11:36:17;-20807.34;;;-144.41;100.00
41684;BME280;27369;52.030;4.586;2023-04-08T11:38:43;-20807.34;;;-144.41;100.00
41684;BME280;27369;52.030;4.586;2023-04-08T11:41:10;-20807.34;;;-144.41;100.00
41684;BME280;27369;52.030;4.586;2023-04-08T11:43:38;-19562.22;;;-144.41;100.00
41684;BME280;27369;52.030;4.586;2023-04-08T11:46:10;-15579.84;;;-144.41;100.00
41684;BME280;27369;52.030;4.586;2023-04-08T11:48:37;-10097.25;;;-144.41;100.00
41684;BME280;27369;52.030;4.586;2023-04-08T11:51:06;-7852.13;;;-144.41;100.00
41684;BME280;27369;52.030;4.586;2023-04-08T11:53:36;-6354.63;;;-144.41;100.00
41684;BME280;27369;52.030;4.586;2023-04-08T11:56:18;391.28;;;-144.41;100.00
41684;BME280;27369;52.030;4.586;2023-04-08T11:58:43;10156.28;;;-144.41;100.00
41684;BME280;27369;52.030;4.586;2023-04-08T12:01:09;19443.31;;;-144.41;100.00
41684;BME280;27369;52.030;4.586;2023-04-08T12:03:35;38336.53;;;-144.41;100.00
41684;BME280;27369;52.030;4.586;2023-04-08T12:06:01;57067.31;;;-144.41;100.00
41684;BME280;27369;52.030;4.586;2023-04-08T12:08:26;79367.69;;;-144.41;100.00
41684;BME280;27369;52.030;4.586;2023-04-08T12:10:52;84511.69;;;-144.41;100.00
41684;BME280;27369;52.030;4.586;2023-04-08T12:13:18;84904.88;;;-144.41;100.00
41684;BME280;27369;52.030;4.586;2023-04-08T12:15:43;84888.91;;;-144.41;100.00
41684;BME280;27369;52.030;4.586;2023-04-08T12:18:09;84858.97;;;-144.41;100.00
41684;BME280;27369;52.030;4.586;2023-04-08T12:20:35;84807.06;;;-144.41;100.00
41684;BME280;27369;52.030;4.586;2023-04-08T12:23:00;84821.03;;;-144.41;100.00
41684;BME280;27369;52.030;4.586;2023-04-08T12:25:25;84755.19;;;-144.41;100.00
41684;BME280;27369;52.030;4.586;2023-04-08T12:27:51;84653.38;;;-144.41;100.00
41684;BME280;27369;52.030;4.586;2023-04-08T12:30:17;84541.63;;;-144.41;100.00
41684;BME280;27369;52.030;4.586;2023-04-08T12:32:43;84443.81;;;-144.41;100.00
41684;BME280;27369;52.030;4.586;2023-04-08T12:35:09;84499.69;;;-144.41;100.00
41684;BME280;27369;52.030;4.586;2023-04-08T12:37:35;84695.28;;;-144.41;100.00